Catlettsburg, KY (41129)

9:43 AM EDT on October 23, 2014 (GMT -0400)
Boy Scout from Ashland | Change Station
CLOSE
Current Station
Personal Weather Station
Location: Ashland, KY
Elevation: 689 ft
Nearby Weather Stations

Elev 689 ft 38.44 °N, 82.65 °W | Updated 52 seconds ago

Overcast
Overcast
49.2 °F
Feels Like 49 °F
N
0.0
Wind Variable Wind from East
Gusts 0.0 mph

Today
High -- | Low -- °F
--% Chance of Precip.
Yesterday
High -- | Low -- °F
Precip. -- in
7:47 AM 6:41 PM
Waning Crescent, 0% visible
Pressure 30.23 in
Visibility 7.0 miles
Clouds Overcast 3800 ft
Windchill 49 °F
Dew Point 46 °F
Humidity 87%
Rainfall 0.00 in
Snow Depth Not available.
UV 0 out of 12
Pollen 1.10 out of 12
Air Quality Not available.
Flu Activity Sporadic
METAR KHTS 231251Z 30004KT 7SM OVC038 08/06 A3023 RMK AO2 SLP237 T00830056

More Conditions Fewer Conditions

Pressure 30.23 in
Visibility 7.0 miles
Clouds Overcast 3800 ft
Windchill 49 °F
Dew Point 46 °F
Humidity 87%
Rainfall 0.00 in
Snow Depth Not available.
UV 0 out of 12
Pollen 1.10 out of 12
Air Quality Not available.
Flu Activity Sporadic
METAR KHTS 231251Z 30004KT 7SM OVC038 08/06 A3023 RMK AO2 SLP237 T00830056

More Conditions Fewer Conditions

10-Day Weather Forecast

Almanac

Astronomy

Oct. 23, 2014 Rise Set
Actual Time 7:47 AM EDT 6:41 PM EDT
Civil Twilight 7:20 AM EDT 7:08 PM EDT
Nautical Twilight 6:49 AM EDT 7:39 PM EDT
Astronomical Twilight 6:18 AM EDT 8:10 PM EDT
Moon 7:26 AM EDT 6:42 PM EDT
Length of Visible Light 11h 48m
Length of Day
10h 54m
Tomorrow will be 2m 18s shorter.
Waning Crescent, 0% of the Moon is Illuminated
Today
Waning Crescent
Oct 23
New
Oct 30
First Quarter
Nov 6
Full
Nov 14
Last Quarter

Today's Extremes

State Highs State Lows

Community

WunderPhotos

Upload Photos

1,764,238 photos uploaded!

Nearby

Snow Depth

Station Depth Elevation
No new snow has been reported.

Earthquake Activity

City Distance Mag. Time & Date
No recent earthquake activity has been reported nearby.
Minimum magnitude displayed is 2.5.

Coastal Water Temperatures

Place Temperature
No Stations Reporting

Nearby Weather Stations